Ana Sayfa
METAR-TAF:

METAR-TAF

Havaalanları :

Bole Uluslararası Havalimanı

Addis Ababa, Etiyopya

Enlem: 08-59N, Boylam: 038-48E, yükseklik: 2355 m

Güncel hava durumu gözlemi

Rapor saat 22:00 UTC de 43 dakika önce yapıldı.
Rüzgar kuzey/kuzeydoğudan 2 kt
Sıcaklık 15°C
Nem 88%
Basınç 1027 hPa
Görüş mesafesi 10 km veya daha fazla
2300 ft yükseklikte parçalı bulutlu

METAR: HAAB 202200Z 03002KT 9999 SCT023 15/13 Q1027 NOSIG

Saat: 01:43 (22:43 UTC)

Tahmin

Rapor saat 15:30 UTC de 7 saat ve 13 dakika önce yapıldı.
Ayın 20'si saat 16 UTC'den ayın 21'si saat 22 UTC'ye kadar geçerli Tahmin
Rüzgar kuzeydan 5 kt
Görüş mesafesi 10 km veya daha fazla
2500 ft yükseklikte parçalı çok bulutlu
Geçici
ayın 20'si saat 16 UTC'den ayın 20'si saat 20 UTC'ye kadar
Rüzgar kuzeydan 4 kt
Görüş mesafesi: 8000 m
2000 ft yükseklikte çok bulutlu
yağmur,

TAF: HAAB 201530Z 2016/2122 360005KT 9999 BKN025 TEMPO 2016/2020 35004KT 8000 RA OVC020

4.000'den fazla havaalanı için hava durumu gözlemleri ve tahminleri (METAR ve TAF raporları).

Kullanılabilir istasyonlar harita üzerinde sarı ve kırmızı noktalarla gösterilir.

İstasyonun adını görmek için fareyi noktanın üzerinde gezdirin.

Sonrasında hava gözlem ve tahminlerini görmek için tıklayın.

Haritayı değiştirmek için: yaklaştırmak için siyah artı işaretli yeşil düğmeye ve uzaklaştırmak için de eksi işaretli düğmeye hızla tıklayın; bitişik haritalar için yeşil okları kullanın.


METAR-TAF: